Higuey, Dominican Republic
Current Conditions -  °F | °C
As of 12:00 PM on Friday 19 Dec 2014 (Local Time) from MDLR Reporting Station
Broken Clouds Broken Clouds  
Wind Chill: 82°   Ceiling: 8000
Heat Index: 87°   Visibility: 6mi
Dew Point: 72°   Wind: 12mph
Humidity: 70%   Direction: 120°ESE
Pressure: 30"   Gusts: NA
Location:  18.62°N, 68.71°W
Report Text: MDLR 191600Z 12010KT 9999 FEW018 BKN080 28/22 Q1016
Loading
Personal Weather Stations






























Interactive Weather Map New forecast layout! Learn more

10-Day Weather Forecast

Advertisements
Track Severe Weather on mobile